sensor_id;sensor_type;location;lat;lon;timestamp;P1;durP1;ratioP1;P2;durP2;ratioP2
20589;SDS011;10453;50.810;12.540;2023-03-01T00:01:11;55.17;;;26.92;;
20589;SDS011;10453;50.810;12.540;2023-03-01T00:05:30;52.65;;;26.20;;
20589;SDS011;10453;50.810;12.540;2023-03-01T00:09:47;53.45;;;26.25;;
20589;SDS011;10453;50.810;12.540;2023-03-01T00:14:04;53.87;;;27.57;;
20589;SDS011;10453;50.810;12.540;2023-03-01T00:18:21;57.05;;;28.17;;
20589;SDS011;10453;50.810;12.540;2023-03-01T00:22:39;51.60;;;26.52;;
20589;SDS011;10453;50.810;12.540;2023-03-01T00:26:56;53.78;;;27.10;;
20589;SDS011;10453;50.810;12.540;2023-03-01T00:31:15;53.47;;;26.50;;
20589;SDS011;10453;50.810;12.540;2023-03-01T00:35:37;55.25;;;27.42;;
20589;SDS011;10453;50.810;12.540;2023-03-01T00:39:54;52.03;;;27.20;;
20589;SDS011;10453;50.810;12.540;2023-03-01T00:44:12;54.67;;;27.40;;
20589;SDS011;10453;50.810;12.540;2023-03-01T00:48:29;61.60;;;28.17;;
20589;SDS011;10453;50.810;12.540;2023-03-01T00:52:46;59.28;;;27.65;;
20589;SDS011;10453;50.810;12.540;2023-03-01T00:57:03;57.70;;;27.63;;
20589;SDS011;10453;50.810;12.540;2023-03-01T01:01:22;58.70;;;28.10;;
20589;SDS011;10453;50.810;12.540;2023-03-01T01:05:43;62.13;;;29.23;;
20589;SDS011;10453;50.810;12.540;2023-03-01T01:10:01;56.92;;;27.67;;
20589;SDS011;10453;50.810;12.540;2023-03-01T01:14:19;56.47;;;26.65;;
20589;SDS011;10453;50.810;12.540;2023-03-01T01:18:36;57.85;;;27.70;;
20589;SDS011;10453;50.810;12.540;2023-03-01T01:22:54;60.80;;;28.58;;
20589;SDS011;10453;50.810;12.540;2023-03-01T01:27:11;57.40;;;27.67;;
20589;SDS011;10453;50.810;12.540;2023-03-01T01:31:28;56.55;;;28.67;;
20589;SDS011;10453;50.810;12.540;2023-03-01T01:35:46;59.10;;;27.83;;
20589;SDS011;10453;50.810;12.540;2023-03-01T01:40:04;61.83;;;28.50;;
20589;SDS011;10453;50.810;12.540;2023-03-01T01:44:24;60.38;;;28.70;;
20589;SDS011;10453;50.810;12.540;2023-03-01T01:48:50;60.28;;;29.48;;
20589;SDS011;10453;50.810;12.540;2023-03-01T01:53:12;67.65;;;29.73;;
20589;SDS011;10453;50.810;12.540;2023-03-01T02:01:54;58.33;;;28.17;;
20589;SDS011;10453;50.810;12.540;2023-03-01T02:06:19;64.63;;;28.85;;
20589;SDS011;10453;50.810;12.540;2023-03-01T02:10:54;64.53;;;29.40;;
20589;SDS011;10453;50.810;12.540;2023-03-01T02:15:12;58.55;;;28.50;;
20589;SDS011;10453;50.810;12.540;2023-03-01T02:19:39;57.58;;;28.88;;
20589;SDS011;10453;50.810;12.540;2023-03-01T02:24:32;62.22;;;28.45;;
20589;SDS011;10453;50.810;12.540;2023-03-01T02:29:03;62.95;;;27.48;;
20589;SDS011;10453;50.810;12.540;2023-03-01T02:33:22;57.25;;;28.00;;
20589;SDS011;10453;50.810;12.540;2023-03-01T02:37:40;64.00;;;28.55;;
20589;SDS011;10453;50.810;12.540;2023-03-01T02:41:59;60.08;;;29.35;;
20589;SDS011;10453;50.810;12.540;2023-03-01T02:46:22;64.53;;;30.58;;
20589;SDS011;10453;50.810;12.540;2023-03-01T02:51:04;61.65;;;29.70;;
20589;SDS011;10453;50.810;12.540;2023-03-01T02:55:36;60.78;;;28.80;;
20589;SDS011;10453;50.810;12.540;2023-03-01T02:59:57;67.38;;;30.58;;
20589;SDS011;10453;50.810;12.540;2023-03-01T03:04:23;64.95;;;30.02;;
20589;SDS011;10453;50.810;12.540;2023-03-01T03:08:40;65.43;;;29.08;;
20589;SDS011;10453;50.810;12.540;2023-03-01T03:12:59;64.25;;;28.80;;
20589;SDS011;10453;50.810;12.540;2023-03-01T03:17:18;61.33;;;29.05;;
20589;SDS011;10453;50.810;12.540;2023-03-01T03:21:37;63.35;;;29.45;;
20589;SDS011;10453;50.810;12.540;2023-03-01T03:25:55;67.97;;;30.58;;
20589;SDS011;10453;50.810;12.540;2023-03-01T03:30:14;64.28;;;30.95;;
20589;SDS011;10453;50.810;12.540;2023-03-01T03:34:33;67.97;;;31.73;;
20589;SDS011;10453;50.810;12.540;2023-03-01T03:38:50;65.20;;;29.67;;
20589;SDS011;10453;50.810;12.540;2023-03-01T03:43:08;62.75;;;29.17;;
20589;SDS011;10453;50.810;12.540;2023-03-01T03:47:28;61.85;;;30.40;;
20589;SDS011;10453;50.810;12.540;2023-03-01T03:51:45;66.13;;;30.17;;
20589;SDS011;10453;50.810;12.540;2023-03-01T03:56:03;63.22;;;28.70;;
20589;SDS011;10453;50.810;12.540;2023-03-01T04:00:22;65.72;;;29.73;;
20589;SDS011;10453;50.810;12.540;2023-03-01T04:04:40;66.35;;;29.98;;
20589;SDS011;10453;50.810;12.540;2023-03-01T04:08:57;64.20;;;28.65;;
20589;SDS011;10453;50.810;12.540;2023-03-01T04:13:18;60.28;;;27.58;;
20589;SDS011;10453;50.810;12.540;2023-03-01T04:17:36;67.50;;;30.45;;
20589;SDS011;10453;50.810;12.540;2023-03-01T04:21:53;65.30;;;30.13;;
20589;SDS011;10453;50.810;12.540;2023-03-01T04:26:10;67.00;;;30.92;;
20589;SDS011;10453;50.810;12.540;2023-03-01T04:30:28;64.65;;;30.33;;
20589;SDS011;10453;50.810;12.540;2023-03-01T04:34:45;64.68;;;30.92;;
20589;SDS011;10453;50.810;12.540;2023-03-01T04:39:02;67.93;;;31.60;;
20589;SDS011;10453;50.810;12.540;2023-03-01T04:43:28;66.22;;;29.42;;
20589;SDS011;10453;50.810;12.540;2023-03-01T04:47:46;67.47;;;30.95;;
20589;SDS011;10453;50.810;12.540;2023-03-01T04:52:03;69.60;;;31.63;;
20589;SDS011;10453;50.810;12.540;2023-03-01T04:56:22;80.95;;;35.35;;
20589;SDS011;10453;50.810;12.540;2023-03-01T05:04:56;73.50;;;31.52;;
20589;SDS011;10453;50.810;12.540;2023-03-01T05:13:31;91.15;;;38.13;;
20589;SDS011;10453;50.810;12.540;2023-03-01T05:17:48;115.30;;;45.47;;
20589;SDS011;10453;50.810;12.540;2023-03-01T05:22:06;146.93;;;56.08;;
20589;SDS011;10453;50.810;12.540;2023-03-01T05:26:23;105.93;;;42.58;;
20589;SDS011;10453;50.810;12.540;2023-03-01T05:30:45;69.90;;;31.20;;
20589;SDS011;10453;50.810;12.540;2023-03-01T05:35:03;73.30;;;31.40;;
20589;SDS011;10453;50.810;12.540;2023-03-01T05:39:21;75.65;;;33.17;;
20589;SDS011;10453;50.810;12.540;2023-03-01T05:43:40;68.78;;;31.75;;
20589;SDS011;10453;50.810;12.540;2023-03-01T05:48:00;68.95;;;31.23;;
20589;SDS011;10453;50.810;12.540;2023-03-01T05:52:17;63.97;;;31.17;;
20589;SDS011;10453;50.810;12.540;2023-03-01T05:56:35;70.47;;;31.25;;
20589;SDS011;10453;50.810;12.540;2023-03-01T06:00:53;68.18;;;30.83;;
20589;SDS011;10453;50.810;12.540;2023-03-01T06:05:13;69.65;;;32.53;;
20589;SDS011;10453;50.810;12.540;2023-03-01T06:09:30;76.38;;;33.72;;
20589;SDS011;10453;50.810;12.540;2023-03-01T06:13:48;71.15;;;30.25;;
20589;SDS011;10453;50.810;12.540;2023-03-01T06:18:05;73.20;;;30.83;;
20589;SDS011;10453;50.810;12.540;2023-03-01T06:22:22;65.88;;;30.42;;
20589;SDS011;10453;50.810;12.540;2023-03-01T06:26:39;62.28;;;30.92;;
20589;SDS011;10453;50.810;12.540;2023-03-01T06:30:56;63.67;;;29.63;;
20589;SDS011;10453;50.810;12.540;2023-03-01T06:35:14;66.28;;;30.55;;
20589;SDS011;10453;50.810;12.540;2023-03-01T06:39:34;65.80;;;31.85;;
20589;SDS011;10453;50.810;12.540;2023-03-01T06:43:51;71.32;;;34.25;;
20589;SDS011;10453;50.810;12.540;2023-03-01T06:52:25;69.55;;;30.75;;
20589;SDS011;10453;50.810;12.540;2023-03-01T06:56:43;74.88;;;33.47;;
20589;SDS011;10453;50.810;12.540;2023-03-01T07:01:08;67.97;;;33.70;;
20589;SDS011;10453;50.810;12.540;2023-03-01T07:05:26;75.25;;;35.08;;
20589;SDS011;10453;50.810;12.540;2023-03-01T07:09:46;73.13;;;35.95;;
20589;SDS011;10453;50.810;12.540;2023-03-01T07:14:05;71.70;;;33.72;;
20589;SDS011;10453;50.810;12.540;2023-03-01T07:18:23;71.10;;;33.63;;
20589;SDS011;10453;50.810;12.540;2023-03-01T07:22:40;73.82;;;33.42;;
20589;SDS011;10453;50.810;12.540;2023-03-01T07:26:58;67.80;;;34.03;;
20589;SDS011;10453;50.810;12.540;2023-03-01T07:31:15;71.22;;;32.65;;
20589;SDS011;10453;50.810;12.540;2023-03-01T07:35:33;67.25;;;34.42;;
20589;SDS011;10453;50.810;12.540;2023-03-01T07:39:50;68.47;;;34.03;;
20589;SDS011;10453;50.810;12.540;2023-03-01T07:44:07;73.03;;;37.30;;
20589;SDS011;10453;50.810;12.540;2023-03-01T07:48:24;76.90;;;38.43;;
20589;SDS011;10453;50.810;12.540;2023-03-01T07:52:41;82.90;;;40.30;;
20589;SDS011;10453;50.810;12.540;2023-03-01T07:56:58;80.23;;;41.30;;
20589;SDS011;10453;50.810;12.540;2023-03-01T08:01:17;81.00;;;40.53;;
20589;SDS011;10453;50.810;12.540;2023-03-01T08:05:36;72.57;;;39.67;;
20589;SDS011;10453;50.810;12.540;2023-03-01T08:09:53;77.60;;;41.47;;
20589;SDS011;10453;50.810;12.540;2023-03-01T08:14:10;63.17;;;36.97;;
20589;SDS011;10453;50.810;12.540;2023-03-01T08:18:27;69.27;;;37.37;;
20589;SDS011;10453;50.810;12.540;2023-03-01T08:22:44;68.03;;;36.63;;
20589;SDS011;10453;50.810;12.540;2023-03-01T08:27:01;67.57;;;35.17;;
20589;SDS011;10453;50.810;12.540;2023-03-01T08:31:21;67.63;;;37.22;;
20589;SDS011;10453;50.810;12.540;2023-03-01T08:35:40;63.10;;;34.55;;
20589;SDS011;10453;50.810;12.540;2023-03-01T08:39:57;66.03;;;37.23;;
20589;SDS011;10453;50.810;12.540;2023-03-01T08:44:14;73.15;;;38.03;;
20589;SDS011;10453;50.810;12.540;2023-03-01T08:48:36;64.32;;;35.40;;
20589;SDS011;10453;50.810;12.540;2023-03-01T08:52:53;62.38;;;34.13;;
20589;SDS011;10453;50.810;12.540;2023-03-01T08:57:10;56.67;;;32.30;;
20589;SDS011;10453;50.810;12.540;2023-03-01T09:01:27;60.28;;;33.45;;
20589;SDS011;10453;50.810;12.540;2023-03-01T09:05:44;50.97;;;31.05;;
20589;SDS011;10453;50.810;12.540;2023-03-01T09:10:02;50.10;;;30.58;;
20589;SDS011;10453;50.810;12.540;2023-03-01T09:14:20;58.50;;;33.00;;
20589;SDS011;10453;50.810;12.540;2023-03-01T09:18:37;52.45;;;31.25;;
20589;SDS011;10453;50.810;12.540;2023-03-01T09:22:54;52.47;;;30.60;;
20589;SDS011;10453;50.810;12.540;2023-03-01T09:27:11;49.03;;;30.17;;
20589;SDS011;10453;50.810;12.540;2023-03-01T09:31:29;45.55;;;28.65;;
20589;SDS011;10453;50.810;12.540;2023-03-01T09:35:46;47.95;;;27.45;;
20589;SDS011;10453;50.810;12.540;2023-03-01T09:40:04;46.03;;;25.73;;
20589;SDS011;10453;50.810;12.540;2023-03-01T09:44:34;43.38;;;27.42;;
20589;SDS011;10453;50.810;12.540;2023-03-01T09:48:57;41.92;;;25.55;;
20589;SDS011;10453;50.810;12.540;2023-03-01T09:53:20;42.80;;;25.25;;
20589;SDS011;10453;50.810;12.540;2023-03-01T09:57:45;40.33;;;25.75;;
20589;SDS011;10453;50.810;12.540;2023-03-01T10:02:23;39.95;;;25.10;;
20589;SDS011;10453;50.810;12.540;2023-03-01T10:11:48;36.33;;;23.17;;
20589;SDS011;10453;50.810;12.540;2023-03-01T10:16:13;38.72;;;23.70;;
20589;SDS011;10453;50.810;12.540;2023-03-01T10:20:52;39.67;;;24.75;;
20589;SDS011;10453;50.810;12.540;2023-03-01T10:25:23;42.78;;;25.15;;
20589;SDS011;10453;50.810;12.540;2023-03-01T10:34:36;35.88;;;24.63;;
20589;SDS011;10453;50.810;12.540;2023-03-01T10:38:55;37.15;;;25.27;;
20589;SDS011;10453;50.810;12.540;2023-03-01T10:43:14;34.53;;;24.90;;
20589;SDS011;10453;50.810;12.540;2023-03-01T10:47:31;37.75;;;25.27;;
20589;SDS011;10453;50.810;12.540;2023-03-01T10:51:49;33.90;;;24.88;;
20589;SDS011;10453;50.810;12.540;2023-03-01T10:56:09;32.92;;;23.77;;
20589;SDS011;10453;50.810;12.540;2023-03-01T11:00:29;30.10;;;23.52;;
20589;SDS011;10453;50.810;12.540;2023-03-01T11:05:13;32.92;;;25.90;;
20589;SDS011;10453;50.810;12.540;2023-03-01T11:09:36;34.30;;;25.47;;
20589;SDS011;10453;50.810;12.540;2023-03-01T11:14:15;33.92;;;24.30;;
20589;SDS011;10453;50.810;12.540;2023-03-01T11:18:43;33.17;;;24.23;;
20589;SDS011;10453;50.810;12.540;2023-03-01T11:23:24;36.00;;;24.55;;
20589;SDS011;10453;50.810;12.540;2023-03-01T11:27:44;35.25;;;23.75;;
20589;SDS011;10453;50.810;12.540;2023-03-01T11:32:04;37.83;;;24.52;;
20589;SDS011;10453;50.810;12.540;2023-03-01T11:41:20;32.20;;;23.45;;
20589;SDS011;10453;50.810;12.540;2023-03-01T11:45:47;31.83;;;22.40;;
20589;SDS011;10453;50.810;12.540;2023-03-01T11:50:46;30.08;;;22.75;;
20589;SDS011;10453;50.810;12.540;2023-03-01T11:55:17;30.33;;;22.88;;
20589;SDS011;10453;50.810;12.540;2023-03-01T11:59:57;30.05;;;23.13;;
20589;SDS011;10453;50.810;12.540;2023-03-01T12:04:32;31.58;;;23.33;;
20589;SDS011;10453;50.810;12.540;2023-03-01T12:13:32;33.95;;;24.15;;
20589;SDS011;10453;50.810;12.540;2023-03-01T12:27:53;32.08;;;23.23;;
20589;SDS011;10453;50.810;12.540;2023-03-01T12:32:35;31.80;;;23.38;;
20589;SDS011;10453;50.810;12.540;2023-03-01T12:41:42;31.23;;;24.10;;
20589;SDS011;10453;50.810;12.540;2023-03-01T12:50:52;32.00;;;24.33;;
20589;SDS011;10453;50.810;12.540;2023-03-01T12:55:25;34.65;;;24.23;;
20589;SDS011;10453;50.810;12.540;2023-03-01T13:18:42;35.20;;;24.67;;
20589;SDS011;10453;50.810;12.540;2023-03-01T13:23:00;41.72;;;25.50;;
20589;SDS011;10453;50.810;12.540;2023-03-01T13:27:23;41.97;;;26.15;;
20589;SDS011;10453;50.810;12.540;2023-03-01T13:35:59;37.67;;;25.23;;
20589;SDS011;10453;50.810;12.540;2023-03-01T13:44:39;40.90;;;24.10;;
20589;SDS011;10453;50.810;12.540;2023-03-01T13:49:00;41.95;;;24.70;;
20589;SDS011;10453;50.810;12.540;2023-03-01T13:53:18;40.78;;;25.30;;
20589;SDS011;10453;50.810;12.540;2023-03-01T13:57:39;41.75;;;25.52;;
20589;SDS011;10453;50.810;12.540;2023-03-01T14:01:58;44.17;;;24.48;;
20589;SDS011;10453;50.810;12.540;2023-03-01T14:06:18;37.53;;;24.10;;
20589;SDS011;10453;50.810;12.540;2023-03-01T14:10:42;43.22;;;25.98;;
20589;SDS011;10453;50.810;12.540;2023-03-01T14:19:57;40.20;;;24.95;;
20589;SDS011;10453;50.810;12.540;2023-03-01T14:24:17;41.45;;;25.10;;
20589;SDS011;10453;50.810;12.540;2023-03-01T14:28:38;35.85;;;24.17;;
20589;SDS011;10453;50.810;12.540;2023-03-01T14:33:02;37.35;;;24.63;;
20589;SDS011;10453;50.810;12.540;2023-03-01T14:37:32;42.67;;;26.77;;
20589;SDS011;10453;50.810;12.540;2023-03-01T14:41:51;41.73;;;27.50;;
20589;SDS011;10453;50.810;12.540;2023-03-01T14:50:59;39.53;;;27.15;;
20589;SDS011;10453;50.810;12.540;2023-03-01T14:55:18;40.08;;;25.20;;
20589;SDS011;10453;50.810;12.540;2023-03-01T14:59:37;37.15;;;24.08;;
20589;SDS011;10453;50.810;12.540;2023-03-01T15:03:55;36.78;;;22.85;;
20589;SDS011;10453;50.810;12.540;2023-03-01T15:08:22;34.80;;;22.33;;
20589;SDS011;10453;50.810;12.540;2023-03-01T15:12:41;41.17;;;23.20;;
20589;SDS011;10453;50.810;12.540;2023-03-01T15:16:58;42.47;;;23.50;;
20589;SDS011;10453;50.810;12.540;2023-03-01T15:25:35;35.90;;;23.13;;
20589;SDS011;10453;50.810;12.540;2023-03-01T15:29:55;39.78;;;25.20;;
20589;SDS011;10453;50.810;12.540;2023-03-01T15:34:21;39.25;;;23.83;;
20589;SDS011;10453;50.810;12.540;2023-03-01T15:38:54;40.40;;;23.85;;
20589;SDS011;10453;50.810;12.540;2023-03-01T15:43:36;38.80;;;23.38;;
20589;SDS011;10453;50.810;12.540;2023-03-01T15:47:58;38.72;;;24.40;;
20589;SDS011;10453;50.810;12.540;2023-03-01T15:53:04;36.97;;;22.45;;
20589;SDS011;10453;50.810;12.540;2023-03-01T15:57:00;41.53;;;22.73;;
20589;SDS011;10453;50.810;12.540;2023-03-01T16:01:17;34.78;;;21.52;;
20589;SDS011;10453;50.810;12.540;2023-03-01T16:05:35;32.20;;;20.77;;
20589;SDS011;10453;50.810;12.540;2023-03-01T16:09:52;31.35;;;20.05;;
20589;SDS011;10453;50.810;12.540;2023-03-01T16:14:10;32.30;;;20.13;;
20589;SDS011;10453;50.810;12.540;2023-03-01T16:18:27;32.22;;;21.60;;
20589;SDS011;10453;50.810;12.540;2023-03-01T16:22:44;30.45;;;19.48;;
20589;SDS011;10453;50.810;12.540;2023-03-01T16:27:02;32.45;;;20.58;;
20589;SDS011;10453;50.810;12.540;2023-03-01T16:31:20;31.95;;;19.70;;
20589;SDS011;10453;50.810;12.540;2023-03-01T16:35:41;35.72;;;20.52;;
20589;SDS011;10453;50.810;12.540;2023-03-01T16:39:59;29.48;;;19.23;;
20589;SDS011;10453;50.810;12.540;2023-03-01T16:44:16;35.78;;;20.20;;
20589;SDS011;10453;50.810;12.540;2023-03-01T16:48:34;31.83;;;19.38;;
20589;SDS011;10453;50.810;12.540;2023-03-01T16:52:51;31.95;;;19.40;;
20589;SDS011;10453;50.810;12.540;2023-03-01T16:57:08;30.08;;;18.70;;
20589;SDS011;10453;50.810;12.540;2023-03-01T17:01:25;30.63;;;18.63;;
20589;SDS011;10453;50.810;12.540;2023-03-01T17:05:42;29.15;;;19.15;;
20589;SDS011;10453;50.810;12.540;2023-03-01T17:10:00;31.70;;;18.70;;
20589;SDS011;10453;50.810;12.540;2023-03-01T17:14:17;30.83;;;19.60;;
20589;SDS011;10453;50.810;12.540;2023-03-01T17:18:35;35.00;;;20.63;;
20589;SDS011;10453;50.810;12.540;2023-03-01T17:22:52;37.13;;;21.70;;
20589;SDS011;10453;50.810;12.540;2023-03-01T17:27:10;38.92;;;22.70;;
20589;SDS011;10453;50.810;12.540;2023-03-01T17:31:28;38.17;;;23.65;;
20589;SDS011;10453;50.810;12.540;2023-03-01T17:35:47;41.17;;;22.88;;
20589;SDS011;10453;50.810;12.540;2023-03-01T17:40:06;37.45;;;23.33;;
20589;SDS011;10453;50.810;12.540;2023-03-01T17:44:23;41.50;;;23.20;;
20589;SDS011;10453;50.810;12.540;2023-03-01T17:48:40;39.85;;;22.40;;
20589;SDS011;10453;50.810;12.540;2023-03-01T17:52:57;47.75;;;24.63;;
20589;SDS011;10453;50.810;12.540;2023-03-01T17:57:15;41.30;;;24.00;;
20589;SDS011;10453;50.810;12.540;2023-03-01T18:01:32;43.53;;;23.50;;
20589;SDS011;10453;50.810;12.540;2023-03-01T18:05:51;43.60;;;24.83;;
20589;SDS011;10453;50.810;12.540;2023-03-01T18:10:08;45.75;;;25.40;;
20589;SDS011;10453;50.810;12.540;2023-03-01T18:14:26;47.05;;;27.20;;
20589;SDS011;10453;50.810;12.540;2023-03-01T18:18:52;47.97;;;26.45;;
20589;SDS011;10453;50.810;12.540;2023-03-01T18:23:11;59.83;;;29.45;;
20589;SDS011;10453;50.810;12.540;2023-03-01T18:27:28;53.13;;;27.52;;
20589;SDS011;10453;50.810;12.540;2023-03-01T18:36:04;56.08;;;29.48;;
20589;SDS011;10453;50.810;12.540;2023-03-01T18:40:31;50.63;;;27.17;;
20589;SDS011;10453;50.810;12.540;2023-03-01T18:44:48;48.80;;;27.17;;
20589;SDS011;10453;50.810;12.540;2023-03-01T18:49:05;47.90;;;26.10;;
20589;SDS011;10453;50.810;12.540;2023-03-01T18:53:24;52.38;;;27.50;;
20589;SDS011;10453;50.810;12.540;2023-03-01T18:57:41;53.83;;;28.23;;
20589;SDS011;10453;50.810;12.540;2023-03-01T19:01:58;53.85;;;28.50;;
20589;SDS011;10453;50.810;12.540;2023-03-01T19:06:15;53.93;;;28.77;;
20589;SDS011;10453;50.810;12.540;2023-03-01T19:14:50;50.05;;;25.40;;
20589;SDS011;10453;50.810;12.540;2023-03-01T19:19:12;59.07;;;31.47;;
20589;SDS011;10453;50.810;12.540;2023-03-01T19:23:30;51.95;;;29.85;;
20589;SDS011;10453;50.810;12.540;2023-03-01T19:27:50;49.53;;;28.20;;
20589;SDS011;10453;50.810;12.540;2023-03-01T19:32:07;51.10;;;27.23;;
20589;SDS011;10453;50.810;12.540;2023-03-01T19:36:25;51.27;;;27.63;;
20589;SDS011;10453;50.810;12.540;2023-03-01T19:40:49;51.63;;;27.35;;
20589;SDS011;10453;50.810;12.540;2023-03-01T19:45:07;47.30;;;25.33;;
20589;SDS011;10453;50.810;12.540;2023-03-01T19:49:24;49.10;;;25.67;;
20589;SDS011;10453;50.810;12.540;2023-03-01T19:53:42;53.00;;;26.25;;
20589;SDS011;10453;50.810;12.540;2023-03-01T19:58:00;48.53;;;26.33;;
20589;SDS011;10453;50.810;12.540;2023-03-01T20:02:17;50.57;;;25.63;;
20589;SDS011;10453;50.810;12.540;2023-03-01T20:06:35;53.07;;;26.67;;
20589;SDS011;10453;50.810;12.540;2023-03-01T20:10:59;53.08;;;28.33;;
20589;SDS011;10453;50.810;12.540;2023-03-01T20:15:18;54.72;;;27.33;;
20589;SDS011;10453;50.810;12.540;2023-03-01T20:19:35;53.22;;;26.73;;
20589;SDS011;10453;50.810;12.540;2023-03-01T20:23:53;51.30;;;27.42;;
20589;SDS011;10453;50.810;12.540;2023-03-01T20:28:10;52.42;;;26.85;;
20589;SDS011;10453;50.810;12.540;2023-03-01T20:32:29;60.03;;;27.30;;
20589;SDS011;10453;50.810;12.540;2023-03-01T20:36:47;53.80;;;27.75;;
20589;SDS011;10453;50.810;12.540;2023-03-01T20:41:06;52.67;;;27.98;;
20589;SDS011;10453;50.810;12.540;2023-03-01T20:45:24;52.85;;;28.83;;
20589;SDS011;10453;50.810;12.540;2023-03-01T20:49:44;55.20;;;27.60;;
20589;SDS011;10453;50.810;12.540;2023-03-01T20:54:01;54.70;;;28.20;;
20589;SDS011;10453;50.810;12.540;2023-03-01T20:58:18;56.35;;;28.17;;
20589;SDS011;10453;50.810;12.540;2023-03-01T21:02:35;57.27;;;29.50;;
20589;SDS011;10453;50.810;12.540;2023-03-01T21:06:54;56.63;;;29.95;;
20589;SDS011;10453;50.810;12.540;2023-03-01T21:11:11;63.97;;;31.43;;
20589;SDS011;10453;50.810;12.540;2023-03-01T21:15:28;61.87;;;30.73;;
20589;SDS011;10453;50.810;12.540;2023-03-01T21:19:45;59.83;;;30.43;;
20589;SDS011;10453;50.810;12.540;2023-03-01T21:24:02;58.43;;;31.53;;
20589;SDS011;10453;50.810;12.540;2023-03-01T21:28:20;58.65;;;29.58;;
20589;SDS011;10453;50.810;12.540;2023-03-01T21:32:37;56.47;;;27.75;;
20589;SDS011;10453;50.810;12.540;2023-03-01T21:36:54;58.83;;;28.85;;
20589;SDS011;10453;50.810;12.540;2023-03-01T21:41:13;53.83;;;28.43;;
20589;SDS011;10453;50.810;12.540;2023-03-01T21:45:30;56.88;;;27.75;;
20589;SDS011;10453;50.810;12.540;2023-03-01T21:49:50;56.67;;;28.40;;
20589;SDS011;10453;50.810;12.540;2023-03-01T21:54:07;54.23;;;27.73;;
20589;SDS011;10453;50.810;12.540;2023-03-01T21:58:28;50.92;;;26.77;;
20589;SDS011;10453;50.810;12.540;2023-03-01T22:02:47;57.00;;;26.50;;
20589;SDS011;10453;50.810;12.540;2023-03-01T22:07:04;61.95;;;28.58;;
20589;SDS011;10453;50.810;12.540;2023-03-01T22:11:22;58.63;;;28.50;;
20589;SDS011;10453;50.810;12.540;2023-03-01T22:15:41;58.78;;;28.85;;
20589;SDS011;10453;50.810;12.540;2023-03-01T22:24:17;51.03;;;27.42;;
20589;SDS011;10453;50.810;12.540;2023-03-01T22:28:36;59.90;;;29.30;;
20589;SDS011;10453;50.810;12.540;2023-03-01T22:32:53;54.80;;;28.13;;
20589;SDS011;10453;50.810;12.540;2023-03-01T22:37:10;60.40;;;29.10;;
20589;SDS011;10453;50.810;12.540;2023-03-01T22:41:29;56.33;;;28.23;;
20589;SDS011;10453;50.810;12.540;2023-03-01T22:45:48;62.78;;;29.50;;
20589;SDS011;10453;50.810;12.540;2023-03-01T22:50:05;57.83;;;28.67;;
20589;SDS011;10453;50.810;12.540;2023-03-01T22:54:23;56.58;;;28.48;;
20589;SDS011;10453;50.810;12.540;2023-03-01T22:58:41;61.53;;;28.70;;
20589;SDS011;10453;50.810;12.540;2023-03-01T23:02:59;57.03;;;30.73;;
20589;SDS011;10453;50.810;12.540;2023-03-01T23:07:16;63.40;;;28.95;;
20589;SDS011;10453;50.810;12.540;2023-03-01T23:11:33;62.00;;;28.90;;
20589;SDS011;10453;50.810;12.540;2023-03-01T23:15:53;60.10;;;29.70;;
20589;SDS011;10453;50.810;12.540;2023-03-01T23:20:12;61.22;;;29.50;;
20589;SDS011;10453;50.810;12.540;2023-03-01T23:24:32;54.17;;;27.92;;
20589;SDS011;10453;50.810;12.540;2023-03-01T23:28:49;63.28;;;29.42;;
20589;SDS011;10453;50.810;12.540;2023-03-01T23:33:07;59.47;;;30.50;;
20589;SDS011;10453;50.810;12.540;2023-03-01T23:37:28;65.83;;;30.97;;
20589;SDS011;10453;50.810;12.540;2023-03-01T23:41:45;65.15;;;31.00;;
20589;SDS011;10453;50.810;12.540;2023-03-01T23:46:03;64.75;;;30.27;;
20589;SDS011;10453;50.810;12.540;2023-03-01T23:50:20;61.63;;;30.30;;
20589;SDS011;10453;50.810;12.540;2023-03-01T23:54:39;61.53;;;29.77;;
20589;SDS011;10453;50.810;12.540;2023-03-01T23:58:58;59.37;;;28.80;;
